createdAt,value
2019-04-06T10:31:12.163Z,75.62
2019-04-06T10:32:12.017Z,74.94
2019-04-06T10:33:12.152Z,74.6
2019-04-06T10:34:11.993Z,74.88
2019-04-06T10:35:12.337Z,74.4
2019-04-06T10:36:12.370Z,74.25
2019-04-06T10:37:12.113Z,73.32
2019-04-06T10:38:12.086Z,72.84
2019-04-06T10:39:12.073Z,72.49
2019-04-06T10:40:12.014Z,72.81
2019-04-06T10:41:12.239Z,71.28
2019-04-06T10:42:12.045Z,70.41
2019-04-06T10:43:12.090Z,70.73
2019-04-06T10:44:12.046Z,70.54
2019-04-06T10:45:12.302Z,70.7
2019-04-06T10:46:12.437Z,70.7
2019-04-06T10:50:41.252Z,71.01
2019-04-06T10:51:43.908Z,70.95
2019-04-06T10:52:42.217Z,70.95
2019-04-06T10:53:41.127Z,70.76
2019-04-06T10:54:41.133Z,71.14
2019-04-06T10:55:41.373Z,71.34
2019-04-06T10:56:41.410Z,71.2
2019-04-06T10:57:43.412Z,70.37
2019-04-06T10:58:41.374Z,71.08
2019-04-06T10:59:42.150Z,72.2
2019-04-06T11:00:41.353Z,71.14
2019-04-06T11:01:41.253Z,70.6
2019-04-06T11:02:41.298Z,70.86
2019-04-06T11:03:41.153Z,70.56
2019-04-06T11:04:41.691Z,70.76
2019-04-06T11:05:41.959Z,69.99
2019-04-06T11:06:41.408Z,70.47
2019-04-06T11:07:41.157Z,70.53
2019-04-06T11:08:41.296Z,70.53
2019-04-06T11:09:41.682Z,70.21
2019-04-06T11:10:59.384Z,71.2
2019-04-06T11:11:59.441Z,70.43
2019-04-06T11:12:59.466Z,70.82
2019-04-06T11:14:00.172Z,70.78
2019-04-06T11:14:59.191Z,70.82
2019-04-06T11:15:59.182Z,71.55
2019-04-06T11:16:59.533Z,71.71
2019-04-06T11:17:59.181Z,72.13
2019-04-06T11:18:59.713Z,72.38
2019-04-06T11:19:59.420Z,72.32
2019-04-06T11:21:00.056Z,71.81
2019-04-06T11:21:59.519Z,71.65
2019-04-06T11:22:59.175Z,71.17
2019-04-06T11:23:59.196Z,70.92
2019-04-06T11:24:59.256Z,70.43
2019-04-06T11:25:59.235Z,70.76
2019-04-06T11:26:59.222Z,70.31
2019-04-06T11:27:59.581Z,69.73
2019-04-06T11:28:59.280Z,69.73
2019-04-06T11:30:11.164Z,69.96
2019-04-06T11:31:00.933Z,69.13
2019-04-06T11:31:59.272Z,67.88
2019-04-06T11:32:59.257Z,66.91
2019-04-06T11:33:59.419Z,67.36
2019-04-06T11:34:59.573Z,67.2
2019-04-06T11:35:59.680Z,68.52
2019-04-06T11:37:00.665Z,68.71
2019-04-06T11:37:59.807Z,67.84
2019-04-06T11:38:59.270Z,68.23
2019-04-06T11:39:59.223Z,68.64
2019-04-06T11:40:59.227Z,68.54
2019-04-06T11:41:59.250Z,68.99
2019-04-06T11:42:59.887Z,68.74
2019-04-06T11:43:59.330Z,68.48
2019-04-06T11:45:00.069Z,68.04
2019-04-06T11:45:59.527Z,68
2019-04-06T11:46:59.469Z,68.29
2019-04-06T11:47:59.229Z,68
2019-04-06T11:48:59.336Z,68.23
2019-04-06T11:49:59.330Z,68.07
2019-04-06T11:50:59.626Z,67.36
2019-04-06T11:51:59.317Z,67
2019-04-06T11:52:59.276Z,66.82
2019-04-06T11:53:59.273Z,66.01
2019-04-06T11:54:59.701Z,66.01
2019-04-06T11:55:59.282Z,66.3
2019-04-06T11:56:59.236Z,66.3
2019-04-06T11:58:02.892Z,66.11
2019-04-06T11:58:59.640Z,66.59
2019-04-06T12:00:02.436Z,66.01
2019-04-06T12:01:01.195Z,66.49
2019-04-06T12:01:59.293Z,66.39
2019-04-06T12:02:59.340Z,66.11
2019-04-06T12:03:59.585Z,66.01
2019-04-06T12:04:59.297Z,65.81
2019-04-06T12:06:00.253Z,66.39
2019-04-06T12:07:00.719Z,66.01
2019-04-06T12:07:59.389Z,65.05
2019-04-06T12:09:00.196Z,64.98
2019-04-06T12:09:59.396Z,65.37
2019-04-06T12:10:59.745Z,65.27
2019-04-06T12:11:59.581Z,64.98
2019-04-06T12:12:59.395Z,65.14
2019-04-06T12:13:59.300Z,64.86
2019-04-06T12:14:59.310Z,64.31
2019-04-06T12:16:00.161Z,64.08
2019-04-06T12:16:59.335Z,64.5
2019-04-06T12:17:59.326Z,64.59
2019-04-06T12:18:59.340Z,64.89
2019-04-06T12:19:59.724Z,64.89
2019-04-06T12:20:59.335Z,64.79
2019-04-06T12:21:59.402Z,64.11
2019-04-06T12:23:00.370Z,64.76
2019-04-06T12:24:00.963Z,65.05
2019-04-06T12:25:00.161Z,66.11
2019-04-06T12:25:59.936Z,67.1
2019-04-06T12:26:59.588Z,67.16
2019-04-06T12:27:59.392Z,66.78
2019-04-06T12:28:59.312Z,67.13
2019-04-06T12:29:59.754Z,67.87
2019-04-06T12:30:59.608Z,68.06
2019-04-06T12:31:59.466Z,68
2019-04-06T12:32:59.936Z,67.33
2019-04-06T12:33:59.475Z,68
2019-04-06T12:34:59.481Z,68.16
2019-04-06T12:36:00.397Z,68.16
2019-04-06T12:36:59.504Z,68.26
2019-04-06T12:37:59.344Z,68.74
2019-04-06T12:38:59.404Z,68.84
2019-04-06T12:39:59.695Z,69.34
2019-04-06T12:40:59.362Z,69.47
2019-04-06T12:41:59.501Z,69.09
2019-04-06T12:42:59.576Z,69.38
2019-04-06T12:43:59.885Z,69.24
2019-04-06T12:44:59.678Z,69.24
2019-04-06T12:45:59.387Z,69.73
2019-04-06T12:46:59.376Z,69.24
2019-04-06T12:47:59.334Z,68.67
2019-04-06T12:48:59.468Z,69.06
2019-04-06T12:50:00.091Z,68.76
2019-04-06T12:50:59.379Z,68.96
2019-04-06T12:52:00.398Z,68.67
2019-04-06T12:53:00.191Z,68.54
2019-04-06T12:53:59.966Z,68.57
2019-04-06T12:54:59.372Z,68.86
2019-04-06T12:55:59.386Z,67.71
2019-04-06T13:01:16.639Z,67.86
2019-04-06T13:01:30.606Z,67.68
2019-04-06T13:02:29.766Z,66.62
2019-04-06T13:07:00.156Z,64.98
2019-04-06T13:07:59.976Z,65.46
2019-04-06T13:08:59.944Z,65.46
2019-04-06T13:09:59.912Z,65.27
2019-04-06T13:11:00.155Z,64.98
2019-04-06T13:12:00.340Z,65.17
2019-04-06T13:13:00.350Z,65.81
2019-04-06T13:14:00.199Z,66.2
2019-04-06T13:15:00.192Z,66.2
2019-04-06T13:16:00.281Z,65.85
2019-04-06T13:17:00.907Z,65.5
2019-04-06T13:18:00.438Z,65.69
2019-04-06T13:18:59.880Z,65.33
2019-04-06T13:20:00.091Z,65.14
2019-04-06T13:20:59.893Z,64.95
2019-04-06T13:22:00.033Z,63.98
2019-04-06T13:23:00.482Z,63.79
2019-04-06T13:23:59.918Z,64.47
2019-04-06T13:25:00.601Z,65.08
2019-04-06T13:26:00.203Z,64.15
2019-04-06T13:27:00.909Z,63.92
2019-04-06T13:28:00.612Z,63.79
2019-04-06T13:29:00.383Z,64.37
2019-04-06T13:30:01.761Z,64.37
2019-04-06T13:31:06.331Z,64.18
2019-04-06T13:32:00.127Z,64.28
2019-04-06T13:33:01.706Z,65.05
2019-04-06T13:34:00.544Z,64.63
2019-04-06T13:34:59.896Z,64.63
2019-04-06T13:36:00.177Z,65.08
2019-04-06T13:37:00.329Z,65.17
2019-04-06T13:37:59.905Z,65.27
2019-04-06T13:39:00.314Z,65.27
2019-04-06T13:39:59.924Z,65.33
2019-04-06T13:42:21.207Z,64.76
2019-04-06T13:43:20.940Z,65.46
2019-04-06T13:44:21.029Z,65.56
2019-04-06T13:45:21.409Z,65.81
2019-04-06T13:46:20.930Z,65.91
2019-04-06T13:47:20.920Z,66.39
2019-04-06T13:48:22.247Z,66.39
2019-04-06T13:49:21.082Z,66.68
2019-04-06T13:50:21.205Z,66.49
2019-04-06T13:51:22.925Z,66.68
2019-04-06T13:52:21.299Z,66.81
2019-04-06T13:53:20.873Z,67.58
2019-04-06T13:54:20.889Z,67.77
2019-04-06T13:55:21.070Z,66.46
2019-04-06T13:56:20.865Z,65.98
2019-04-06T13:57:21.012Z,65.98
2019-04-06T13:58:20.914Z,65.24
2019-04-06T13:59:20.903Z,64.82
2019-04-06T14:00:20.999Z,65.3
2019-04-06T14:01:21.327Z,65.2
2019-04-06T14:02:21.053Z,64.69
2019-04-06T14:03:20.877Z,64.05
2019-04-06T14:04:21.134Z,65.08
2019-04-06T14:05:21.301Z,63.95
2019-04-06T14:06:20.920Z,63.85
2019-04-06T14:07:20.921Z,63.7
2019-04-06T14:08:21.075Z,63.98
2019-04-06T14:09:21.179Z,63.34
2019-04-06T14:10:21.015Z,63.06
2019-04-06T14:11:21.260Z,63.54
2019-04-06T14:12:21.259Z,63.54
2019-04-06T14:13:21.070Z,63.73
2019-04-06T14:14:20.960Z,63.47
2019-04-06T14:15:21.063Z,62.51
2019-04-06T14:16:20.936Z,61.96
2019-04-06T14:17:21.082Z,62.15
2019-04-06T14:18:21.246Z,62.12
2019-04-06T14:22:54.521Z,62.89
2019-04-06T14:23:53.617Z,62.89
2019-04-06T14:24:53.511Z,63.63
2019-04-06T14:25:53.805Z,63.34
2019-04-06T14:26:53.175Z,63.76
2019-04-06T14:27:54.103Z,63.47
2019-04-06T14:28:54.013Z,62.22
2019-04-06T14:29:54.742Z,62.12
2019-04-06T14:30:54.433Z,61.74
2019-04-06T14:31:53.455Z,62.41
2019-04-06T14:32:53.002Z,62.41
2019-04-06T14:33:53.274Z,61.96
2019-04-06T14:34:53.168Z,62.48
2019-04-06T14:35:53.045Z,62.66
2019-04-06T14:36:53.005Z,62.66
2019-04-06T14:37:53.028Z,62.41
2019-04-06T14:38:53.663Z,62.18
2019-04-06T14:39:53.407Z,62.38
2019-04-06T14:40:53.290Z,61.74
2019-04-06T14:41:53.330Z,62.09
2019-04-06T14:42:53.146Z,62.48
2019-04-06T14:43:54.601Z,62.76
2019-04-06T14:44:53.255Z,62.18
2019-04-06T14:45:53.315Z,62.09
2019-04-06T14:46:53.083Z,62.09
2019-04-06T14:47:53.657Z,62.18
2019-04-06T14:48:53.073Z,62.76
2019-04-06T14:49:53.309Z,62.15
2019-04-06T14:50:53.169Z,62.54
2019-04-06T14:51:53.063Z,62.66
2019-04-06T14:52:53.190Z,63.15
2019-04-06T14:53:53.338Z,63.02
2019-04-06T14:54:53.392Z,62.83
2019-04-06T14:55:53.592Z,62.63
2019-04-06T14:56:53.640Z,62.48
2019-04-06T14:57:53.072Z,62.57
2019-04-06T14:58:53.528Z,62.48
2019-04-06T14:59:54.639Z,62.66
2019-04-06T15:00:54.096Z,63.63
2019-04-06T15:02:11.764Z,62.86
2019-04-06T15:03:11.542Z,62.76
2019-04-06T15:04:11.588Z,62.28
2019-04-06T15:05:11.420Z,62.02
2019-04-06T15:06:11.625Z,62.28
2019-04-06T15:07:14.821Z,61.9
2019-04-06T15:08:11.630Z,62.57
2019-04-06T15:09:11.309Z,61.8
2019-04-06T15:10:12.707Z,61.99
2019-04-06T15:11:11.611Z,61.99
2019-04-06T15:12:11.354Z,61.9
2019-04-06T15:13:12.026Z,61.9
2019-04-06T15:14:13.320Z,62.35
2019-04-06T15:15:11.629Z,62.48
2019-04-06T15:16:11.310Z,62.18
2019-04-06T15:17:11.686Z,61.61
2019-04-06T15:23:51.551Z,62.63
2019-04-06T15:24:53.041Z,63.41
2019-04-06T15:25:51.771Z,62.15
2019-04-06T15:26:51.962Z,62.25
2019-04-06T15:27:51.272Z,62.45
2019-04-06T15:28:51.786Z,62.73
2019-04-06T15:29:51.561Z,62.83
2019-04-06T15:30:51.895Z,62.38
2019-04-06T15:31:54.448Z,61.9
2019-04-06T15:32:51.661Z,62.86
2019-04-06T15:33:51.428Z,63.02
2019-04-06T15:34:51.649Z,62.54
2019-04-06T15:35:51.677Z,62.15
2019-04-06T15:36:51.320Z,62.22
2019-04-06T15:37:52.250Z,62.87
2019-04-06T15:38:52.104Z,63.28
2019-04-06T15:39:52.022Z,62.93
2019-04-06T15:40:52.612Z,62.7
2019-04-06T15:41:59.338Z,62.99
2019-04-06T15:42:51.424Z,62.73
2019-04-06T15:43:52.715Z,62.96
2019-04-06T15:44:51.568Z,63.25
2019-04-06T15:45:51.478Z,63.38
2019-04-06T15:46:55.404Z,62.9
2019-04-06T15:47:52.105Z,63.44
2019-04-06T15:48:51.506Z,63.44
2019-04-06T15:49:51.271Z,63.85
2019-04-06T15:50:51.422Z,63.95
2019-04-06T15:51:51.886Z,63.67
2019-04-06T15:52:52.266Z,63.95
2019-04-06T15:57:22.079Z,65.11
2019-04-06T16:04:03.186Z,64.25
2019-04-06T16:05:03.045Z,64.79
2019-04-06T16:06:03.239Z,64.98
2019-04-06T16:07:03.244Z,64.28
2019-04-06T16:08:02.770Z,64.86
2019-04-06T16:09:02.646Z,64.37
2019-04-06T16:10:03.391Z,64.76
2019-04-06T16:11:03.565Z,64.56
2019-04-06T16:12:04.715Z,65.24
2019-04-06T16:13:03.806Z,65.24
2019-04-06T16:14:03.005Z,65.24
2019-04-06T16:15:03.055Z,65.78
2019-04-06T16:16:03.876Z,65.4
2019-04-06T16:17:03.972Z,65.59
2019-04-06T16:18:03.782Z,65.88
2019-04-06T16:19:03.789Z,65.3
2019-04-06T16:20:04.225Z,65.11
2019-04-06T16:24:33.983Z,65.78
2019-04-06T16:25:33.552Z,65.59
2019-04-06T16:26:33.614Z,65.94
2019-04-06T16:27:34.378Z,66.23
2019-04-06T16:28:33.804Z,66.04
2019-04-06T16:29:34.465Z,66.42
2019-04-06T16:30:34.423Z,66.23
2019-04-06T16:31:33.693Z,66.23
2019-04-06T16:32:37.404Z,66.14
2019-04-06T16:33:33.991Z,66.71
2019-04-06T16:34:34.229Z,66.52
2019-04-06T16:35:34.294Z,66.61
2019-04-06T16:36:34.431Z,66.91
2019-04-06T16:37:34.270Z,66.58
2019-04-06T16:38:34.541Z,66.3
2019-04-06T16:39:36.297Z,66.68
2019-04-06T16:40:34.291Z,66.58
2019-04-06T16:41:35.699Z,66.58
2019-04-06T16:42:34.643Z,66.58
2019-04-06T16:43:35.587Z,66.68
2019-04-06T16:44:34.274Z,67.16
2019-04-06T16:45:34.231Z,67.16
2019-04-06T16:46:35.003Z,66.68
2019-04-06T16:47:34.724Z,67.16
2019-04-06T16:48:34.887Z,67.13
2019-04-06T16:49:34.826Z,67.61
2019-04-06T16:50:34.698Z,67.16
2019-04-06T16:51:35.172Z,67.61
2019-04-06T16:52:35.033Z,67.83
2019-04-06T16:53:34.387Z,67.74
2019-04-06T16:54:34.955Z,66.97
2019-04-06T16:55:34.595Z,66.74
2019-04-06T16:56:34.462Z,66.74
2019-04-06T16:57:35.099Z,67.22
2019-04-06T16:58:35.517Z,67.51
2019-04-06T16:59:35.153Z,67.8
2019-04-06T17:00:34.710Z,67.61
2019-04-06T17:01:35.511Z,67.8
2019-04-06T17:02:35.269Z,67.8
2019-04-06T17:03:34.482Z,68.57
2019-04-06T17:04:36.615Z,67.8
2019-04-06T17:05:35.562Z,67.8
2019-04-06T17:06:36.016Z,68.08
